Time;durP1;ratioP1;P1;durP2;ratioP2;P2;SDS_P1;SDS_P2;PMS_P1;PMS_P2;Temp;Humidity;BMP_temperature;BMP_pressure;BME280_temperature;BME280_humidity;BME280_pressure;Samples;Min_cycle;Max_cycle;Signal;HPM_P1;HPM_P2
2023/11/23 00:03:41;;;;;;;6.63;2.63;;;;;;;2.04;59.86;100980.00;10518120;28;20048;-62
2023/11/23 00:08:43;;;;;;;4.97;2.00;;;;;;;1.93;59.75;100976.66;10517468;28;20059;-63
2023/11/23 00:13:46;;;;;;;3.28;1.90;;;;;;;1.85;60.07;100973.28;10518164;28;20569;-62
2023/11/23 00:18:48;;;;;;;4.47;2.30;;;;;;;1.99;60.42;100968.88;10517532;28;20056;-63
2023/11/23 00:23:50;;;;;;;2.80;1.85;;;;;;;2.17;60.05;100950.66;10518674;28;20047;-63
2023/11/23 00:28:52;;;;;;;3.72;1.77;;;;;;;2.28;60.00;100959.13;10517296;28;20824;-62
2023/11/23 00:33:54;;;;;;;9.35;3.70;;;;;;;2.38;60.11;100958.16;10499423;28;20557;-63
2023/11/23 00:38:56;;;;;;;6.72;3.13;;;;;;;2.58;60.08;100943.31;10497645;28;20051;-62
2023/11/23 00:43:58;;;;;;;3.45;1.95;;;;;;;2.68;59.55;100934.59;10482072;28;20072;-63
2023/11/23 00:49:00;;;;;;;3.72;2.17;;;;;;;2.57;59.49;100954.53;10516915;28;20055;-63
2023/11/23 00:54:04;;;;;;;4.00;2.17;;;;;;;2.51;59.19;100943.41;10515358;28;20170;-62
2023/11/23 00:59:06;;;;;;;3.28;1.77;;;;;;;2.27;59.49;100952.28;10514371;28;20047;-63
2023/11/23 01:04:08;;;;;;;2.85;1.58;;;;;;;2.34;59.71;100942.75;10494760;28;20051;-63
2023/11/23 01:09:11;;;;;;;3.10;1.50;;;;;;;2.38;59.37;100937.50;10481147;28;20130;-63
2023/11/23 01:14:14;;;;;;;2.78;1.63;;;;;;;2.42;59.27;100931.44;10498165;28;20432;-63
2023/11/23 01:19:16;;;;;;;2.97;1.50;;;;;;;2.42;59.06;100934.03;10497822;28;20048;-63
2023/11/23 01:24:18;;;;;;;2.70;1.60;;;;;;;2.41;59.02;100932.34;10516326;28;20047;-62
2023/11/23 01:29:20;;;;;;;2.38;1.55;;;;;;;2.46;58.59;100922.78;10497286;28;20062;-63
2023/11/23 01:34:22;;;;;;;2.53;1.58;;;;;;;2.40;58.59;100912.53;10514255;28;20036;-63
2023/11/23 01:39:25;;;;;;;4.35;1.90;;;;;;;2.37;58.76;100901.41;10480483;28;20131;-63
2023/11/23 01:44:27;;;;;;;3.35;1.75;;;;;;;2.27;58.77;100904.94;10496421;28;20174;-63
2023/11/23 01:49:30;;;;;;;3.90;1.45;;;;;;;2.26;59.08;100898.06;10497493;28;20043;-63
2023/11/23 01:54:32;;;;;;;4.18;1.50;;;;;;;2.26;59.14;100888.59;10514853;28;20051;-63
2023/11/23 01:59:35;;;;;;;2.30;1.40;;;;;;;2.46;58.95;100878.91;10496599;28;20101;-62
2023/11/23 02:04:37;;;;;;;6.13;1.65;;;;;;;2.59;58.58;100872.72;10514693;28;20388;-62
2023/11/23 02:09:39;;;;;;;2.97;1.77;;;;;;;2.71;58.51;100870.00;10503182;28;20083;-63
2023/11/23 02:14:42;;;;;;;2.53;1.38;;;;;;;2.89;58.05;100872.34;10504743;28;20062;-62
2023/11/23 02:19:45;;;;;;;3.20;1.50;;;;;;;3.07;57.87;100860.03;10523304;28;20104;-62
2023/11/23 02:24:47;;;;;;;2.03;1.25;;;;;;;3.19;57.61;100849.53;10521979;28;20058;-63
2023/11/23 02:29:49;;;;;;;5.38;1.70;;;;;;;3.27;57.43;100860.59;10520847;28;20523;-62
2023/11/23 02:34:51;;;;;;;2.47;1.48;;;;;;;3.39;57.40;100863.00;10498218;28;20083;-63
2023/11/23 02:39:53;;;;;;;2.85;1.60;;;;;;;3.45;57.26;100852.53;10522243;28;20130;-63
2023/11/23 02:44:55;;;;;;;3.95;1.90;;;;;;;3.65;57.05;100846.16;10516833;28;20040;-63
2023/11/23 02:49:57;;;;;;;2.83;1.27;;;;;;;3.70;56.66;100833.16;10521343;28;20047;-62
2023/11/23 02:54:59;;;;;;;3.30;1.67;;;;;;;3.63;56.69;100828.97;10519198;28;20044;-62
2023/11/23 03:00:01;;;;;;;3.42;1.73;;;;;;;3.78;56.84;100828.69;10520506;28;20040;-62
2023/11/23 03:05:05;;;;;;;3.30;1.45;;;;;;;3.86;57.01;100830.28;10521491;28;20388;-62
2023/11/23 03:10:09;;;;;;;3.40;1.88;;;;;;;3.92;56.89;100821.56;10519042;28;20484;-62
2023/11/23 03:15:11;;;;;;;2.22;1.30;;;;;;;4.06;56.77;100814.41;10503545;28;20048;-62
2023/11/23 03:20:13;;;;;;;4.05;1.80;;;;;;;4.10;56.51;100818.63;10500621;28;20036;-63
2023/11/23 03:25:16;;;;;;;5.18;1.60;;;;;;;4.04;56.99;100816.16;10519660;28;20058;-63
2023/11/23 03:30:19;;;;;;;3.60;1.80;;;;;;;4.13;56.74;100817.72;10519176;28;20748;-62
2023/11/23 03:35:21;;;;;;;2.85;1.60;;;;;;;4.07;57.17;100810.91;10519963;28;20040;-63
2023/11/23 03:40:23;;;;;;;3.25;1.70;;;;;;;4.19;57.12;100808.09;10517575;28;20044;-63
2023/11/23 03:45:25;;;;;;;2.85;1.60;;;;;;;4.21;57.30;100808.06;10517818;28;20120;-62
2023/11/23 03:50:27;;;;;;;3.42;1.75;;;;;;;4.20;57.60;100794.28;10519575;28;20495;-63
2023/11/23 03:55:29;;;;;;;3.80;2.03;;;;;;;4.30;57.62;100803.56;10519392;28;20067;-62
2023/11/23 04:00:31;;;;;;;4.88;2.45;;;;;;;4.35;57.94;100811.25;10517815;28;20378;-63
2023/11/23 04:05:33;;;;;;;3.65;2.40;;;;;;;4.31;58.90;100804.41;10519356;28;20304;-62
2023/11/23 04:10:35;;;;;;;3.78;2.00;;;;;;;4.15;60.26;100798.66;10499992;28;20044;-63
2023/11/23 04:15:37;;;;;;;6.10;2.10;;;;;;;4.30;59.92;100795.78;10518771;28;20054;-63
2023/11/23 04:20:39;;;;;;;3.92;2.10;;;;;;;4.32;60.55;100783.66;10517828;28;20058;-63
2023/11/23 04:25:41;;;;;;;4.78;2.28;;;;;;;4.28;61.52;100776.84;10518208;28;20452;-63
2023/11/23 04:30:43;;;;;;;3.97;2.17;;;;;;;4.29;61.76;100772.53;10516394;28;20075;-63
2023/11/23 04:35:45;;;;;;;5.80;2.15;;;;;;;4.31;62.71;100779.34;10517232;28;20040;-62
2023/11/23 04:40:47;;;;;;;4.97;2.25;;;;;;;4.41;62.41;100780.84;10517205;28;20128;-63
2023/11/23 04:45:49;;;;;;;4.55;1.95;;;;;;;4.50;61.85;100778.09;10499207;28;20800;-62
2023/11/23 04:50:51;;;;;;;4.10;2.20;;;;;;;4.43;62.65;100781.69;10516060;28;20128;-62
2023/11/23 04:55:53;;;;;;;4.22;1.90;;;;;;;4.58;62.42;100773.59;10516870;28;20055;-62
2023/11/23 05:00:55;;;;;;;4.07;2.03;;;;;;;4.60;62.55;100770.97;10515587;28;20606;-62
2023/11/23 05:05:57;;;;;;;8.80;2.35;;;;;;;4.63;62.70;100768.31;10515877;28;20309;-63
2023/11/23 05:10:59;;;;;;;5.70;2.63;;;;;;;4.68;62.56;100761.28;10516369;28;20121;-63
2023/11/23 05:16:01;;;;;;;4.68;2.33;;;;;;;4.76;62.67;100761.13;10516659;28;20423;-62
2023/11/23 05:21:04;;;;;;;7.57;2.72;;;;;;;4.84;62.47;100757.44;10515243;28;20465;-62
2023/11/23 05:26:06;;;;;;;5.07;2.40;;;;;;;4.87;62.42;100756.53;10515804;28;20073;-62
2023/11/23 05:31:09;;;;;;;5.15;2.63;;;;;;;4.84;62.75;100736.72;10514820;28;20617;-62
2023/11/23 05:36:11;;;;;;;5.57;2.33;;;;;;;4.96;62.50;100740.78;10498586;28;20480;-62
2023/11/23 05:41:14;;;;;;;3.92;1.98;;;;;;;5.04;62.62;100733.66;10513808;28;20059;-63
2023/11/23 05:46:16;;;;;;;4.43;2.25;;;;;;;5.13;62.23;100754.16;10515571;28;20075;-62
2023/11/23 05:51:19;;;;;;;5.97;2.95;;;;;;;4.97;62.76;100752.81;10515502;28;20055;-62
2023/11/23 05:56:24;;;;;;;3.92;1.95;;;;;;;5.09;62.55;100752.53;10515547;28;20048;-62
2023/11/23 06:01:26;;;;;;;4.60;2.30;;;;;;;5.24;62.12;100742.66;10514139;28;20067;-63
2023/11/23 06:06:29;;;;;;;5.45;2.50;;;;;;;5.24;62.15;100746.97;10515635;28;20048;-62
2023/11/23 06:11:32;;;;;;;8.10;3.33;;;;;;;5.13;62.55;100749.84;10514797;28;20496;-63
2023/11/23 06:16:34;;;;;;;4.32;2.47;;;;;;;5.22;62.25;100743.56;10514145;28;20956;-62
2023/11/23 06:21:36;;;;;;;4.78;2.45;;;;;;;5.29;62.22;100745.09;10496335;28;20130;-63
2023/11/23 06:26:38;;;;;;;4.55;2.30;;;;;;;5.36;62.28;100742.34;10496609;28;20087;-62
2023/11/23 06:31:40;;;;;;;4.55;2.35;;;;;;;5.33;62.41;100750.19;10514974;28;20488;-62
2023/11/23 06:36:42;;;;;;;4.05;2.17;;;;;;;5.35;62.47;100744.97;10513211;28;20510;-62
2023/11/23 06:41:53;;;;;;;4.43;2.25;;;;;;;5.39;62.34;100744.00;10513730;28;20050;-63
2023/11/23 06:46:55;;;;;;;5.28;2.42;;;;;;;5.47;62.24;100740.31;10496698;28;20143;-62
2023/11/23 06:51:57;;;;;;;4.00;2.30;;;;;;;5.49;62.05;100735.09;10514694;28;20071;-62
2023/11/23 06:56:59;;;;;;;4.55;2.13;;;;;;;5.45;62.15;100733.47;10484368;28;20055;-62
2023/11/23 07:02:02;;;;;;;7.20;2.95;;;;;;;5.56;61.92;100731.44;10520801;28;20514;-62
2023/11/23 07:07:06;;;;;;;5.25;2.17;;;;;;;5.59;61.99;100733.97;10502812;28;20054;-62
2023/11/23 07:12:09;;;;;;;5.88;2.33;;;;;;;5.61;61.98;100731.31;10520288;28;20051;-63
2023/11/23 07:17:12;;;;;;;7.60;2.58;;;;;;;5.63;61.83;100732.97;10502922;28;20119;-63
2023/11/23 07:22:15;;;;;;;5.82;2.80;;;;;;;5.59;62.14;100736.56;10479092;28;20853;-62
2023/11/23 07:27:17;;;;;;;5.60;3.13;;;;;;;5.56;62.38;100721.06;10521177;28;20040;-63
2023/11/23 07:32:19;;;;;;;6.47;3.15;;;;;;;5.64;62.27;100726.03;10519844;28;20067;-62
2023/11/23 07:37:21;;;;;;;5.55;2.47;;;;;;;5.82;62.14;100726.38;10469060;28;20044;-62
2023/11/23 07:42:23;;;;;;;9.98;3.80;;;;;;;5.79;62.32;100721.28;10519005;28;20037;-63
2023/11/23 07:47:25;;;;;;;5.43;2.58;;;;;;;5.78;62.50;100729.94;10519594;28;20407;-62
2023/11/23 07:52:27;;;;;;;5.72;2.83;;;;;;;5.85;62.46;100728.03;10518539;28;20955;-62
2023/11/23 07:57:29;;;;;;;5.55;2.72;;;;;;;6.05;62.09;100710.16;10519527;28;20048;-62
2023/11/23 08:02:31;;;;;;;7.20;2.80;;;;;;;6.12;61.98;100711.69;10518615;28;20052;-63
2023/11/23 08:07:33;;;;;;;4.95;2.47;;;;;;;6.18;61.76;100704.56;10518874;28;20079;-62
2023/11/23 08:12:35;;;;;;;4.32;2.17;;;;;;;6.20;61.80;100697.59;10518147;28;20607;-62
2023/11/23 08:17:38;;;;;;;4.35;2.58;;;;;;;6.46;61.41;100708.97;10516771;28;20051;-63
2023/11/23 08:22:40;;;;;;;5.03;2.10;;;;;;;6.60;61.15;100706.78;10500419;28;20109;-62
2023/11/23 08:27:42;;;;;;;4.43;2.50;;;;;;;6.63;61.06;100704.97;10517880;28;20066;-62
2023/11/23 08:32:44;;;;;;;5.03;2.20;;;;;;;6.72;60.94;100701.19;10518011;28;20043;-63
2023/11/23 08:37:46;;;;;;;4.93;2.65;;;;;;;6.88;60.86;100695.47;10517184;28;20051;-62
2023/11/23 08:42:48;;;;;;;6.93;2.65;;;;;;;6.93;60.70;100692.72;10499741;28;20520;-62
2023/11/23 08:47:50;;;;;;;5.32;2.90;;;;;;;6.76;61.12;100693.25;10514517;28;20056;-62
2023/11/23 08:52:57;;;;;;;4.85;2.35;;;;;;;6.95;60.89;100670.13;10517252;28;20044;-63
2023/11/23 08:57:59;;;;;;;5.28;2.60;;;;;;;7.24;60.39;100664.78;10516051;28;20162;-62
2023/11/23 09:03:04;;;;;;;6.70;2.55;;;;;;;7.11;60.64;100659.16;10498404;28;20071;-62
2023/11/23 09:08:07;;;;;;;5.28;2.35;;;;;;;7.20;60.78;100642.38;10516008;28;20399;-62
2023/11/23 09:13:09;;;;;;;5.28;2.60;;;;;;;7.33;60.41;100630.63;10498437;28;20050;-62
2023/11/23 09:18:11;;;;;;;5.30;2.60;;;;;;;7.35;60.67;100626.22;10515261;28;20054;-62
2023/11/23 09:23:13;;;;;;;6.22;2.72;;;;;;;7.55;60.22;100620.31;10516652;28;20051;-63
2023/11/23 09:28:15;;;;;;;4.07;2.10;;;;;;;7.74;60.01;100634.34;10514773;28;20416;-63
2023/11/23 09:33:18;;;;;;;4.47;2.20;;;;;;;7.79;59.81;100622.84;10516394;28;20036;-63
2023/11/23 09:38:24;;;;;;;7.03;2.40;;;;;;;7.77;60.01;100629.84;10493745;28;20668;-63
2023/11/23 09:43:29;;;;;;;4.53;2.45;;;;;;;7.82;60.15;100625.34;10513284;28;20063;-62
2023/11/23 09:48:36;;;;;;;4.75;2.28;;;;;;;7.79;60.08;100612.41;10509271;28;20102;-63
2023/11/23 09:53:43;;;;;;;9.25;2.80;;;;;;;7.78;60.37;100621.16;10507837;28;20353;-63
2023/11/23 09:58:46;;;;;;;4.35;2.28;;;;;;;7.80;60.38;100621.94;10504527;28;20135;-63
2023/11/23 10:03:53;;;;;;;6.47;2.92;;;;;;;7.85;60.31;100609.59;10489446;28;20467;-63
2023/11/23 10:08:58;;;;;;;5.85;2.60;;;;;;;8.07;60.10;100588.78;10499661;28;20040;-63
2023/11/23 10:14:02;;;;;;;5.32;2.53;;;;;;;8.05;60.16;100580.19;10505524;28;20067;-66
2023/11/23 10:19:05;;;;;;;5.85;2.40;;;;;;;8.07;60.48;100574.91;10505939;28;20040;-63
2023/11/23 10:24:07;;;;;;;4.50;2.60;;;;;;;8.16;60.11;100565.00;10506360;28;20040;-64
2023/11/23 10:29:10;;;;;;;4.70;2.53;;;;;;;8.39;59.87;100566.69;10509325;28;20048;-64
2023/11/23 10:34:13;;;;;;;3.53;2.03;;;;;;;8.42;59.81;100557.00;10513519;28;20209;-64
2023/11/23 10:39:16;;;;;;;3.83;1.85;;;;;;;8.42;59.85;100538.75;10515057;28;20043;-64
2023/11/23 10:44:18;;;;;;;4.53;2.40;;;;;;;8.62;59.57;100527.50;10515778;28;20136;-64
2023/11/23 10:49:22;;;;;;;3.97;2.22;;;;;;;8.74;59.39;100508.72;10513194;28;20097;-64
2023/11/23 10:54:24;;;;;;;3.95;2.10;;;;;;;8.88;59.33;100524.59;10513698;28;20084;-64
2023/11/23 10:59:27;;;;;;;4.00;2.22;;;;;;;8.90;58.98;100507.13;10510453;28;20913;-64
2023/11/23 11:04:30;;;;;;;3.95;2.03;;;;;;;8.96;58.99;100480.78;10497273;28;20203;-64
2023/11/23 11:09:33;;;;;;;3.90;1.88;;;;;;;9.06;59.09;100484.66;10513497;28;20513;-64
2023/11/23 11:14:38;;;;;;;4.65;2.10;;;;;;;9.18;58.74;100455.41;10515344;28;20062;-64
2023/11/23 11:19:50;;;;;;;4.03;1.90;;;;;;;9.23;58.36;100481.28;10513324;28;20847;-64
2023/11/23 11:24:58;;;;;;;3.75;2.20;;;;;;;9.26;58.59;100458.50;10514470;28;20047;-64
2023/11/23 11:30:00;;;;;;;3.63;1.80;;;;;;;9.29;58.46;100444.47;10512970;28;20071;-64
2023/11/23 11:35:03;;;;;;;3.03;1.70;;;;;;;9.41;58.61;100439.53;10496481;28;20055;-64
2023/11/23 11:40:08;;;;;;;4.68;2.28;;;;;;;9.57;58.42;100435.28;10492621;28;20094;-64
2023/11/23 11:45:12;;;;;;;3.40;1.92;;;;;;;9.54;58.42;100431.97;10490713;28;20480;-64
2023/11/23 11:50:14;;;;;;;5.15;1.90;;;;;;;9.60;58.49;100431.69;10511672;28;20097;-64
2023/11/23 11:55:17;;;;;;;4.15;1.95;;;;;;;9.77;57.85;100408.22;10511273;28;20048;-64
2023/11/23 12:00:19;;;;;;;3.78;1.90;;;;;;;9.84;58.14;100390.50;10506828;28;20051;-64
2023/11/23 12:05:22;;;;;;;3.55;1.80;;;;;;;9.77;58.26;100386.50;10500427;28;20060;-64
2023/11/23 12:10:38;;;;;;;4.18;1.60;;;;;;;9.72;58.14;100370.19;10478145;28;20058;-65
2023/11/23 12:15:42;;;;;;;5.45;1.60;;;;;;;9.76;58.16;100374.34;10507304;28;20157;-64
2023/11/23 12:20:44;;;;;;;3.05;1.65;;;;;;;9.84;57.94;100372.19;10510314;28;20090;-64
2023/11/23 12:25:48;;;;;;;3.20;1.70;;;;;;;9.84;58.03;100348.69;10506022;28;20407;-64
2023/11/23 12:30:52;;;;;;;2.75;1.40;;;;;;;10.10;57.85;100346.44;10508101;28;20047;-65
2023/11/23 12:35:54;;;;;;;2.97;1.73;;;;;;;9.98;58.18;100344.47;10510234;28;20444;-64
2023/11/23 12:40:56;;;;;;;3.35;2.03;;;;;;;9.94;57.73;100329.03;10488321;28;20040;-64
2023/11/23 12:45:59;;;;;;;3.05;1.42;;;;;;;9.95;58.12;100322.88;10504498;28;20047;-65
2023/11/23 12:51:01;;;;;;;4.00;1.90;;;;;;;9.82;57.77;100312.22;10505065;28;20052;-64
2023/11/23 12:56:04;;;;;;;2.88;1.52;;;;;;;9.89;58.04;100303.13;10508873;28;20040;-64
2023/11/23 13:01:07;;;;;;;3.58;1.77;;;;;;;9.79;58.30;100311.53;10508177;28;20214;-64
2023/11/23 13:06:12;;;;;;;3.95;1.40;;;;;;;9.91;58.31;100300.44;10509167;28;20561;-64
2023/11/23 13:11:14;;;;;;;5.10;1.50;;;;;;;10.10;58.09;100299.41;10491844;28;20487;-64
2023/11/23 13:16:17;;;;;;;3.85;1.63;;;;;;;10.03;58.00;100297.22;10491868;28;20054;-64
2023/11/23 13:21:19;;;;;;;3.00;1.52;;;;;;;9.85;58.16;100290.31;10503141;28;20047;-64
2023/11/23 13:26:25;;;;;;;2.90;1.67;;;;;;;9.95;58.07;100289.75;10507599;28;20063;-64
2023/11/23 13:31:27;;;;;;;4.90;2.03;;;;;;;9.77;58.25;100287.25;10490996;28;20040;-64
2023/11/23 13:36:34;;;;;;;3.60;1.45;;;;;;;9.69;58.25;100269.34;10505754;28;20502;-64
2023/11/23 13:41:36;;;;;;;5.32;2.15;;;;;;;9.64;58.50;100259.13;10507611;28;20044;-64
2023/11/23 13:46:38;;;;;;;4.22;2.22;;;;;;;9.20;59.40;100268.28;10506431;28;20440;-65
2023/11/23 13:51:41;;;;;;;5.47;2.45;;;;;;;9.40;59.33;100262.09;10501825;28;20044;-64
2023/11/23 13:56:44;;;;;;;5.03;2.20;;;;;;;9.26;59.40;100257.53;10485897;28;20129;-65
2023/11/23 14:01:48;;;;;;;3.72;1.77;;;;;;;9.43;59.17;100247.13;10505455;28;20150;-65
2023/11/23 14:06:50;;;;;;;6.72;2.10;;;;;;;9.37;59.30;100228.31;10511046;28;20059;-64
2023/11/23 14:11:55;;;;;;;3.67;2.05;;;;;;;9.15;59.79;100252.03;10517707;28;20136;-64
2023/11/23 14:16:57;;;;;;;3.60;2.15;;;;;;;9.27;59.60;100230.53;10514435;28;20059;-64
2023/11/23 14:22:00;;;;;;;4.78;1.90;;;;;;;8.94;60.36;100216.53;10517311;28;20900;-64
2023/11/23 14:27:02;;;;;;;6.15;2.10;;;;;;;8.92;60.46;100192.28;10511124;28;20494;-64
2023/11/23 14:32:05;;;;;;;3.75;2.00;;;;;;;9.07;60.15;100182.88;10517087;28;20044;-65
2023/11/23 14:37:08;;;;;;;4.32;2.25;;;;;;;8.85;60.56;100178.69;10512169;28;20044;-64
2023/11/23 14:42:11;;;;;;;4.22;2.40;;;;;;;8.92;60.51;100191.44;10492940;28;20055;-64
2023/11/23 14:47:14;;;;;;;3.08;1.95;;;;;;;9.07;60.16;100185.47;10477486;28;20048;-64
2023/11/23 14:52:19;;;;;;;4.45;2.20;;;;;;;8.99;60.51;100188.47;10515847;28;20040;-64
2023/11/23 14:57:22;;;;;;;4.07;2.25;;;;;;;9.02;60.44;100175.25;10512605;28;20044;-65
2023/11/23 15:02:24;;;;;;;4.43;2.05;;;;;;;8.78;61.18;100185.16;10514762;28;20048;-64
2023/11/23 15:07:26;;;;;;;4.40;2.45;;;;;;;8.79;61.08;100171.16;10514500;28;20083;-64
2023/11/23 15:12:29;;;;;;;6.82;3.20;;;;;;;8.68;61.71;100164.78;10511270;28;20048;-64
2023/11/23 15:17:32;;;;;;;4.43;2.10;;;;;;;8.85;61.02;100157.00;10513209;28;20103;-64
2023/11/23 15:22:34;;;;;;;4.68;2.58;;;;;;;8.86;61.12;100153.47;10515817;28;20050;-64
2023/11/23 15:27:36;;;;;;;6.90;2.28;;;;;;;8.83;61.46;100151.03;10515063;28;20101;-64
2023/11/23 15:32:39;;;;;;;5.13;2.47;;;;;;;8.83;61.30;100156.25;10515729;28;20048;-64
2023/11/23 15:37:42;;;;;;;4.68;2.10;;;;;;;8.84;61.30;100158.75;10514301;28;20070;-64
2023/11/23 15:42:45;;;;;;;4.60;1.90;;;;;;;8.91;61.33;100154.09;10516737;28;20044;-64
2023/11/23 15:47:48;;;;;;;6.50;2.60;;;;;;;8.87;61.29;100131.69;10514742;28;20058;-64
2023/11/23 15:52:50;;;;;;;5.75;2.20;;;;;;;8.94;61.19;100135.66;10496398;28;20028;-63
2023/11/23 15:57:52;;;;;;;4.05;2.08;;;;;;;8.96;61.24;100146.88;10512882;28;20040;-64
2023/11/23 16:02:54;;;;;;;4.53;2.72;;;;;;;8.90;61.36;100139.34;10496809;28;20041;-64
2023/11/23 16:08:00;;;;;;;3.53;1.90;;;;;;;8.96;61.29;100130.38;10513747;28;20518;-66
2023/11/23 16:13:02;;;;;;;3.83;2.20;;;;;;;8.85;61.63;100128.31;10511059;28;20090;-66
2023/11/23 16:18:04;;;;;;;4.15;2.10;;;;;;;8.85;61.73;100121.31;10509762;28;20141;-66
2023/11/23 16:23:07;;;;;;;3.15;2.13;;;;;;;8.91;61.66;100121.94;10512028;28;20046;-66
2023/11/23 16:28:09;;;;;;;3.88;1.83;;;;;;;8.98;61.57;100120.69;10479315;28;20051;-67
2023/11/23 16:33:11;;;;;;;3.55;1.92;;;;;;;8.93;61.76;100110.53;10493905;28;20496;-67
2023/11/23 16:38:13;;;;;;;4.32;2.25;;;;;;;8.85;62.05;100089.19;10488513;28;20032;-66
2023/11/23 16:43:15;;;;;;;4.63;2.35;;;;;;;8.85;62.14;100086.59;10512814;28;20058;-66
2023/11/23 16:48:17;;;;;;;4.32;2.05;;;;;;;8.86;62.36;100077.84;10512338;28;20500;-66
2023/11/23 16:53:19;;;;;;;4.13;2.17;;;;;;;8.90;62.24;100068.94;10512146;28;20051;-66
2023/11/23 16:58:22;;;;;;;3.67;1.70;;;;;;;8.91;62.36;100070.63;10509949;28;20381;-66
2023/11/23 17:03:25;;;;;;;6.88;2.03;;;;;;;8.91;62.46;100048.91;10512939;28;20054;-66
2023/11/23 17:08:27;;;;;;;4.15;1.90;;;;;;;8.90;62.83;100042.00;10512208;28;20093;-66
2023/11/23 17:13:30;;;;;;;5.07;2.15;;;;;;;8.93;62.87;100021.84;10493491;28;20054;-66
2023/11/23 17:18:33;;;;;;;3.22;1.98;;;;;;;8.91;63.17;100007.19;10509438;28;20101;-66
2023/11/23 17:23:36;;;;;;;3.42;1.83;;;;;;;8.90;63.47;100001.13;10510300;28;20786;-66
2023/11/23 17:28:38;;;;;;;4.30;2.00;;;;;;;8.74;65.08;100002.84;10492484;28;20960;-65
2023/11/23 17:33:40;;;;;;;3.92;2.30;;;;;;;8.74;64.78;99989.78;10506996;28;20047;-66
2023/11/23 17:38:43;;;;;;;5.53;2.33;;;;;;;8.69;65.37;99991.78;10498472;28;20039;-66
2023/11/23 17:43:46;;;;;;;4.78;2.30;;;;;;;8.77;65.42;99997.47;10509614;28;20525;-66
2023/11/23 17:48:48;;;;;;;3.60;2.00;;;;;;;8.67;66.24;99972.75;10508835;28;20102;-66
2023/11/23 17:53:50;;;;;;;3.63;2.10;;;;;;;8.64;66.40;99963.34;10509783;28;20480;-66
2023/11/23 17:58:52;;;;;;;4.75;2.40;;;;;;;8.85;65.21;99950.97;10508277;28;20496;-66
2023/11/23 18:04:09;;;;;;;12.57;2.85;;;;;;;8.88;65.38;99944.75;10512384;28;20477;-66
2023/11/23 18:09:11;;;;;;;5.90;2.83;;;;;;;8.86;65.77;99926.56;10510406;28;20158;-66
2023/11/23 18:14:15;;;;;;;4.10;2.25;;;;;;;9.00;65.11;99946.69;10514274;28;20071;-65
2023/11/23 18:19:17;;;;;;;4.90;2.38;;;;;;;8.95;65.45;99962.63;10514883;28;20563;-66
2023/11/23 18:24:19;;;;;;;5.63;2.30;;;;;;;8.95;65.40;99941.75;10515319;28;20040;-66
2023/11/23 18:29:22;;;;;;;4.97;2.50;;;;;;;9.06;65.06;99922.88;10514929;28;20428;-66
2023/11/23 18:34:24;;;;;;;4.22;2.53;;;;;;;9.04;65.23;99903.88;10514790;28;20044;-66
2023/11/23 18:39:27;;;;;;;6.90;2.42;;;;;;;9.11;65.14;99902.63;10513947;28;20044;-66
2023/11/23 18:44:29;;;;;;;9.13;3.17;;;;;;;9.13;65.16;99882.53;10511880;28;20060;-65
2023/11/23 18:49:32;;;;;;;5.85;2.42;;;;;;;9.23;64.86;99889.75;10516854;28;20194;-65
2023/11/23 18:54:34;;;;;;;3.65;2.10;;;;;;;9.14;65.37;99886.78;10521701;28;20573;-66
2023/11/23 18:59:36;;;;;;;4.10;2.03;;;;;;;9.10;65.92;99880.06;10521146;28;20044;-65
2023/11/23 19:04:38;;;;;;;3.33;2.00;;;;;;;9.17;65.54;99871.00;10501167;28;20044;-66
2023/11/23 19:09:40;;;;;;;4.45;2.30;;;;;;;9.20;65.50;99876.88;10500533;28;20384;-66
2023/11/23 19:14:42;;;;;;;4.07;1.95;;;;;;;9.14;65.93;99887.66;10520135;28;20192;-65
2023/11/23 19:19:45;;;;;;;3.80;1.80;;;;;;;9.24;65.85;99874.97;10503034;28;20518;-66
2023/11/23 19:24:50;;;;;;;3.58;1.85;;;;;;;9.23;66.22;99871.50;10519085;28;20142;-65
2023/11/23 19:29:53;;;;;;;6.18;1.90;;;;;;;9.15;66.61;99881.50;10519722;28;20067;-66
2023/11/23 19:34:55;;;;;;;5.60;2.40;;;;;;;9.16;66.96;99867.53;10499002;28;20040;-66
2023/11/23 19:39:58;;;;;;;4.05;2.38;;;;;;;9.12;67.32;99867.78;10501977;28;20048;-66
2023/11/23 19:45:01;;;;;;;4.38;2.30;;;;;;;9.09;67.54;99860.13;10518566;28;20055;-66
2023/11/23 19:50:04;;;;;;;4.15;2.20;;;;;;;8.97;69.05;99866.88;10518261;28;20048;-66
2023/11/23 19:55:07;;;;;;;5.25;2.08;;;;;;;9.10;68.12;99857.44;10519254;28;20419;-66
2023/11/23 20:00:11;;;;;;;4.50;2.13;;;;;;;9.05;68.69;99841.19;10517153;28;20036;-66
2023/11/23 20:05:13;;;;;;;4.43;2.28;;;;;;;9.07;68.68;99836.75;10517075;28;20119;-66
2023/11/23 20:10:15;;;;;;;3.75;1.90;;;;;;;9.07;68.82;99821.09;10517870;28;20036;-65
2023/11/23 20:15:17;;;;;;;4.35;2.05;;;;;;;9.11;68.93;99816.53;10517226;28;20144;-66
2023/11/23 20:20:19;;;;;;;2.60;1.70;;;;;;;9.17;68.77;99805.75;10515966;28;20055;-65
2023/11/23 20:25:21;;;;;;;3.80;2.10;;;;;;;9.11;69.61;99788.69;10515305;28;20560;-65
2023/11/23 20:30:25;;;;;;;4.47;2.03;;;;;;;9.16;69.36;99778.81;10515877;28;20052;-65
2023/11/23 20:35:27;;;;;;;5.45;2.20;;;;;;;9.17;69.41;99761.41;10515408;28;20532;-66
2023/11/23 20:40:29;;;;;;;7.85;2.45;;;;;;;9.10;70.22;99758.28;10510952;28;20127;-66
2023/11/23 20:45:31;;;;;;;3.92;1.60;;;;;;;9.17;70.56;99743.13;10514179;28;20050;-66
2023/11/23 20:50:33;;;;;;;5.38;2.40;;;;;;;9.22;69.94;99731.50;10497824;28;20048;-65
2023/11/23 20:55:35;;;;;;;4.93;1.95;;;;;;;9.20;70.11;99742.97;10464605;28;20044;-66
2023/11/23 21:00:38;;;;;;;4.03;1.90;;;;;;;9.16;70.63;99726.63;10514624;28;20109;-66
2023/11/23 21:05:40;;;;;;;6.53;2.88;;;;;;;9.12;70.92;99724.28;10514822;28;20598;-66
2023/11/23 21:10:43;;;;;;;7.05;3.35;;;;;;;9.13;71.08;99721.63;10515272;28;20048;-66
2023/11/23 21:15:46;;;;;;;5.00;2.53;;;;;;;9.18;71.12;99718.75;10514376;28;20139;-66
2023/11/23 21:20:49;;;;;;;6.80;2.20;;;;;;;9.24;71.14;99687.91;10514748;28;20035;-66
2023/11/23 21:25:52;;;;;;;3.88;2.03;;;;;;;9.28;71.18;99684.19;10514430;28;20048;-67
2023/11/23 21:30:54;;;;;;;3.55;1.67;;;;;;;9.31;71.33;99678.78;10495195;28;20139;-66
2023/11/23 21:35:57;;;;;;;2.22;1.45;;;;;;;9.40;70.85;99665.19;10514895;28;20036;-66
2023/11/23 21:40:59;;;;;;;2.28;1.38;;;;;;;9.39;71.11;99666.13;10514092;28;20135;-66
2023/11/23 21:46:02;;;;;;;4.88;1.73;;;;;;;9.34;71.59;99657.72;10512642;28;20036;-66
2023/11/23 21:51:04;;;;;;;2.65;1.42;;;;;;;9.37;71.41;99639.28;10514527;28;20040;-66
2023/11/23 21:56:06;;;;;;;2.83;1.70;;;;;;;9.42;71.32;99645.06;10495595;28;20056;-66
2023/11/23 22:01:08;;;;;;;2.22;1.30;;;;;;;9.37;72.00;99641.91;10514592;28;20155;-66
2023/11/23 22:06:10;;;;;;;2.63;1.25;;;;;;;9.43;71.54;99625.88;10513813;28;20043;-66
2023/11/23 22:11:12;;;;;;;2.83;0.95;;;;;;;9.51;71.03;99600.16;10514249;28;20134;-65
2023/11/23 22:16:15;;;;;;;3.15;1.35;;;;;;;9.53;71.26;99584.38;10512238;28;20048;-67
2023/11/23 22:21:17;;;;;;;2.58;1.20;;;;;;;9.55;70.99;99578.13;10513508;28;20035;-65
2023/11/23 22:26:19;;;;;;;2.65;1.63;;;;;;;9.49;71.65;99573.28;10518517;28;20048;-66
2023/11/23 22:31:22;;;;;;;1.52;1.23;;;;;;;9.52;71.40;99580.94;10503706;28;20186;-66
2023/11/23 22:36:24;;;;;;;2.03;1.20;;;;;;;9.47;71.72;99566.47;10520325;28;20504;-67
2023/11/23 22:41:30;;;;;;;1.55;1.00;;;;;;;9.50;71.52;99568.94;10521858;28;20933;-66
2023/11/23 22:46:32;;;;;;;0.82;0.80;;;;;;;9.56;71.49;99566.75;10521029;28;20547;-66
2023/11/23 22:51:34;;;;;;;1.20;0.90;;;;;;;9.59;71.38;99560.50;10493050;28;20048;-66
2023/11/23 22:56:36;;;;;;;1.13;1.00;;;;;;;9.58;71.39;99561.47;10518197;28;20455;-66
2023/11/23 23:01:38;;;;;;;1.52;1.00;;;;;;;9.61;71.31;99551.66;10516868;28;20539;-66
2023/11/23 23:06:42;;;;;;;0.98;0.85;;;;;;;9.72;70.92;99550.19;10521117;28;21197;-66
2023/11/23 23:11:44;;;;;;;3.10;1.10;;;;;;;9.73;70.79;99547.47;10520117;28;20036;-66
2023/11/23 23:16:46;;;;;;;1.67;1.30;;;;;;;9.69;71.15;99545.97;10520113;28;20134;-66
2023/11/23 23:21:48;;;;;;;3.03;1.00;;;;;;;9.69;71.07;99537.34;10502160;28;20044;-65
2023/11/23 23:26:50;;;;;;;1.17;0.90;;;;;;;9.78;70.68;99523.69;10501939;28;20479;-66
2023/11/23 23:31:53;;;;;;;1.25;0.93;;;;;;;9.74;70.99;99501.31;10500423;28;20036;-66